Time;durP1;ratioP1;P1;durP2;ratioP2;P2;SDS_P1;SDS_P2;PMS_P1;PMS_P2;Temp;Humidity;BMP_temperature;BMP_pressure;BME280_temperature;BME280_humidity;BME280_pressure;Samples;Min_cycle;Max_cycle;Signal;HPM_P1;HPM_P2
2022/04/20 00:00:33;;;;;;;8.32;3.08;;;9.40;99.90;;;;;;5058198;28;20771;-54
2022/04/20 00:02:59;;;;;;;7.68;2.90;;;9.50;99.90;;;;;;5060242;28;20381;-53
2022/04/20 00:05:25;;;;;;;10.10;4.03;;;9.20;99.90;;;;;;5060653;28;20395;-53
2022/04/20 00:07:51;;;;;;;8.35;5.50;;;9.10;99.90;;;;;;5060982;28;20380;-54
2022/04/20 00:10:17;;;;;;;8.15;5.60;;;9.20;99.90;;;;;;5058176;28;20404;-54
2022/04/20 00:12:43;;;;;;;8.95;5.07;;;9.10;99.90;;;;;;5058243;28;20425;-53
2022/04/20 00:15:09;;;;;;;7.77;6.00;;;9.10;99.90;;;;;;5061101;28;20434;-53
2022/04/20 00:17:34;;;;;;;8.07;5.13;;;9.00;99.90;;;;;;5060184;28;20397;-53
2022/04/20 00:20:00;;;;;;;8.83;6.10;;;8.90;99.90;;;;;;5058882;28;20398;-53
2022/04/20 00:22:26;;;;;;;8.57;5.13;;;8.90;99.90;;;;;;5076987;28;20424;-54
2022/04/20 00:24:51;;;;;;;10.87;5.10;;;8.90;99.90;;;;;;5079659;28;20467;-53
2022/04/20 00:27:17;;;;;;;7.27;3.50;;;8.80;99.90;;;;;;5080868;28;20407;-53
2022/04/20 00:29:43;;;;;;;6.80;2.90;;;8.80;99.90;;;;;;5078947;28;20419;-53
2022/04/20 00:32:09;;;;;;;8.87;3.30;;;8.80;99.90;;;;;;5079497;28;20408;-53
2022/04/20 00:34:34;;;;;;;6.45;2.90;;;8.80;99.90;;;;;;5078573;28;20473;-53
2022/04/20 00:37:00;;;;;;;7.47;3.30;;;8.80;99.90;;;;;;5082545;28;20386;-54
2022/04/20 00:39:26;;;;;;;7.50;3.30;;;8.70;99.90;;;;;;5082317;28;20400;-53
2022/04/20 00:41:54;;;;;;;7.40;3.60;;;8.70;99.90;;;;;;5077913;28;20396;-54
2022/04/20 00:44:21;;;;;;;9.23;3.35;;;8.60;99.90;;;;;;5077398;28;20401;-53
2022/04/20 00:46:47;;;;;;;7.50;3.58;;;8.50;99.90;;;;;;5078420;28;20471;-53
2022/04/20 00:49:17;;;;;;;12.13;4.20;;;8.50;99.90;;;;;;5078977;28;20438;-53
2022/04/20 00:51:56;;;;;;;8.27;4.00;;;8.50;99.90;;;;;;5080661;28;20390;-53
2022/04/20 00:54:23;;;;;;;8.20;3.85;;;8.40;99.90;;;;;;5082401;28;20487;-53
2022/04/20 00:56:49;;;;;;;11.20;4.50;;;8.40;99.90;;;;;;5084266;28;20382;-53
2022/04/20 00:59:20;;;;;;;9.77;5.70;;;8.40;99.90;;;;;;5083560;28;20386;-53
2022/04/20 01:01:46;;;;;;;9.90;5.60;;;8.30;99.90;;;;;;5063973;28;20473;-53
2022/04/20 01:04:12;;;;;;;8.85;6.40;;;8.30;99.90;;;;;;5082266;28;20403;-53
2022/04/20 01:06:37;;;;;;;11.40;6.05;;;8.20;99.90;;;;;;5081731;28;20386;-54
2022/04/20 01:09:03;;;;;;;9.40;5.53;;;8.20;99.90;;;;;;5078536;28;21822;-53
2022/04/20 01:11:29;;;;;;;10.68;4.53;;;7.40;99.90;;;;;;5080247;28;20443;-53
2022/04/20 01:13:55;;;;;;;8.05;3.90;;;8.10;99.90;;;;;;5077396;28;20907;-54
2022/04/20 01:16:21;;;;;;;8.55;4.18;;;8.10;99.90;;;;;;5081347;28;20382;-53
2022/04/20 01:18:53;;;;;;;12.57;6.65;;;8.10;99.90;;;;;;5077149;28;20392;-53
2022/04/20 01:21:18;;;;;;;9.75;6.13;;;8.10;99.90;;;;;;5074332;28;20451;-52
2022/04/20 01:23:44;;;;;;;9.85;4.20;;;8.10;99.90;;;;;;5059923;28;20418;-52
2022/04/20 01:26:10;;;;;;;7.43;3.50;;;8.00;99.90;;;;;;5057670;28;20882;-54
2022/04/20 01:28:38;;;;;;;8.63;4.05;;;8.00;99.90;;;;;;5059138;28;20392;-54
2022/04/20 01:31:04;;;;;;;10.10;5.20;;;8.00;99.90;;;;;;5059003;28;20539;-52
2022/04/20 01:33:30;;;;;;;12.90;5.70;;;7.90;99.90;;;;;;5054499;28;20413;-52
2022/04/20 01:35:56;;;;;;;9.27;5.40;;;7.80;99.90;;;;;;5059375;28;20402;-52
2022/04/20 01:38:22;;;;;;;10.10;5.50;;;7.80;99.90;;;;;;5057635;28;20839;-52
2022/04/20 01:40:48;;;;;;;9.50;5.20;;;7.90;99.90;;;;;;5059341;28;20396;-52
2022/04/20 01:43:14;;;;;;;9.70;5.70;;;7.70;99.90;;;;;;5056813;28;20891;-52
2022/04/20 01:45:40;;;;;;;8.80;3.90;;;7.70;99.90;;;;;;5040144;28;20445;-52
2022/04/20 01:48:07;;;;;;;7.72;4.40;;;7.70;99.90;;;;;;5058708;28;20780;-52
2022/04/20 01:50:33;;;;;;;8.85;5.75;;;7.60;99.90;;;;;;5060183;28;20763;-52
2022/04/20 01:52:59;;;;;;;9.17;4.43;;;7.70;99.90;;;;;;5058471;28;20481;-52
2022/04/20 01:55:24;;;;;;;10.23;4.40;;;7.60;99.90;;;;;;5053829;28;20501;-52
2022/04/20 01:57:52;;;;;;;8.50;4.30;;;7.60;99.90;;;;;;5059194;28;20392;-52
2022/04/20 02:00:18;;;;;;;12.02;4.53;;;7.60;99.90;;;;;;5057780;28;20936;-52
2022/04/20 02:02:43;;;;;;;9.57;4.35;;;7.50;99.90;;;;;;5062513;28;20472;-53
2022/04/20 02:05:11;;;;;;;9.70;4.53;;;7.50;99.90;;;;;;5060497;28;20388;-52
2022/04/20 02:07:38;;;;;;;8.88;4.68;;;7.60;99.90;;;;;;5062158;28;20394;-52
2022/04/20 02:10:05;;;;;;;9.05;4.90;;;7.60;99.90;;;;;;5061691;28;20423;-52
2022/04/20 02:12:31;;;;;;;8.90;4.50;;;7.60;99.90;;;;;;5049877;28;20520;-52
2022/04/20 02:14:58;;;;;;;7.95;4.22;;;7.60;99.90;;;;;;5064637;28;20393;-52
2022/04/20 02:17:23;;;;;;;10.13;4.82;;;7.50;99.90;;;;;;5060185;28;20386;-52
2022/04/20 02:19:49;;;;;;;9.70;4.90;;;7.50;99.90;;;;;;5061790;28;20400;-52
2022/04/20 02:22:15;;;;;;;8.95;4.85;;;7.50;99.90;;;;;;5059752;28;20432;-52
2022/04/20 02:24:41;;;;;;;8.57;4.82;;;7.50;99.90;;;;;;5063818;28;20399;-52
2022/04/20 02:27:10;;;;;;;10.43;4.40;;;7.50;99.90;;;;;;5061031;28;20457;-51
2022/04/20 02:29:37;;;;;;;9.55;4.95;;;7.40;99.90;;;;;;5061051;28;20381;-52
2022/04/20 02:32:04;;;;;;;9.98;5.13;;;7.40;99.90;;;;;;5060392;28;20971;-52
2022/04/20 02:34:29;;;;;;;9.73;5.00;;;7.30;99.90;;;;;;5062800;28;20437;-52
2022/04/20 02:36:56;;;;;;;9.43;4.90;;;7.40;99.90;;;;;;5063083;28;20420;-52
2022/04/20 02:39:22;;;;;;;9.45;5.40;;;7.30;99.90;;;;;;5060751;28;20906;-51
2022/04/20 02:41:48;;;;;;;9.27;5.30;;;7.30;99.90;;;;;;5061183;28;20386;-52
2022/04/20 02:44:14;;;;;;;8.93;4.90;;;7.30;99.90;;;;;;5059595;28;20454;-52
2022/04/20 02:46:41;;;;;;;9.27;5.20;;;7.20;99.90;;;;;;5061550;28;20417;-52
2022/04/20 02:49:07;;;;;;;9.18;5.75;;;7.10;99.90;;;;;;5061100;28;20392;-50
2022/04/20 02:51:34;;;;;;;10.20;6.00;;;7.00;99.90;;;;;;5062188;28;20392;-52
2022/04/20 02:54:01;;;;;;;9.57;5.60;;;7.00;99.90;;;;;;5060725;28;20449;-52
2022/04/20 02:56:27;;;;;;;9.82;6.10;;;7.00;99.90;;;;;;5061693;28;20397;-52
2022/04/20 02:58:52;;;;;;;9.32;5.60;;;7.00;99.90;;;;;;5060257;28;20393;-52
2022/04/20 03:01:18;;;;;;;8.90;5.60;;;7.00;99.90;;;;;;5060016;28;20391;-51
2022/04/20 03:03:44;;;;;;;11.48;5.95;;;7.00;99.90;;;;;;5061610;28;20400;-52
2022/04/20 03:06:11;;;;;;;9.07;5.33;;;7.00;99.90;;;;;;5059919;28;20395;-56
2022/04/20 03:08:36;;;;;;;10.77;6.10;;;6.90;99.90;;;;;;5062617;28;20369;-52
2022/04/20 03:11:02;;;;;;;11.70;6.60;;;7.00;99.90;;;;;;5058970;28;20762;-52
2022/04/20 03:13:27;;;;;;;10.50;6.03;;;7.00;99.90;;;;;;5058692;28;20412;-52
2022/04/20 03:15:53;;;;;;;10.50;6.00;;;7.00;99.90;;;;;;5060219;28;20429;-52
2022/04/20 03:18:19;;;;;;;10.60;6.20;;;7.00;99.90;;;;;;5059945;28;20392;-52
2022/04/20 03:20:44;;;;;;;9.48;6.40;;;6.90;99.90;;;;;;5059795;28;20426;-52
2022/04/20 03:23:12;;;;;;;9.30;5.53;;;6.90;99.90;;;;;;5063547;28;20407;-52
2022/04/20 03:25:38;;;;;;;11.65;6.38;;;6.80;99.90;;;;;;5062337;28;20432;-52
2022/04/20 03:28:04;;;;;;;12.75;5.85;;;6.80;99.90;;;;;;5060341;28;20394;-51
2022/04/20 03:30:29;;;;;;;10.30;5.30;;;6.80;99.90;;;;;;5063146;28;20400;-52
2022/04/20 03:32:55;;;;;;;9.45;5.13;;;6.80;99.90;;;;;;5068425;28;20424;-52
2022/04/20 03:35:21;;;;;;;10.70;5.65;;;6.80;99.90;;;;;;5063357;28;20404;-52
2022/04/20 03:37:47;;;;;;;10.77;5.53;;;6.80;99.90;;;;;;5062913;28;21106;-52
2022/04/20 03:40:12;;;;;;;9.70;5.30;;;6.80;99.90;;;;;;5065582;28;20476;-53
2022/04/20 03:42:38;;;;;;;11.47;5.60;;;6.70;99.90;;;;;;5062721;28;20402;-52
2022/04/20 03:45:04;;;;;;;10.37;5.50;;;6.70;99.90;;;;;;5065173;28;20812;-51
2022/04/20 03:47:30;;;;;;;10.63;5.50;;;6.50;99.90;;;;;;5060962;28;20404;-53
2022/04/20 03:49:56;;;;;;;9.65;5.80;;;6.50;99.90;;;;;;5063582;28;20806;-52
2022/04/20 03:52:21;;;;;;;10.00;6.20;;;6.30;99.90;;;;;;5056492;28;20385;-52
2022/04/20 03:54:47;;;;;;;9.75;5.72;;;6.10;99.90;;;;;;5053881;28;20424;-52
2022/04/20 03:57:13;;;;;;;10.63;5.90;;;5.90;99.90;;;;;;5068940;28;20388;-52
2022/04/20 03:59:38;;;;;;;9.15;5.47;;;6.00;99.90;;;;;;5069982;28;20561;-52
2022/04/20 04:02:05;;;;;;;11.60;5.72;;;5.80;1.00;;;;;;5069856;28;20475;-51
2022/04/20 04:04:32;;;;;;;11.75;5.95;;;5.80;1.00;;;;;;5057877;28;20433;-51
2022/04/20 04:06:58;;;;;;;11.25;6.40;;;5.60;1.00;;;;;;5050709;28;20397;-52
2022/04/20 04:09:24;;;;;;;10.70;5.90;;;5.50;1.00;;;;;;5062793;28;20482;-52
2022/04/20 04:11:50;;;;;;;11.93;6.32;;;5.50;1.00;;;;;;5061839;28;20391;-51
2022/04/20 04:14:17;;;;;;;10.27;6.40;;;7.20;1.00;;;;;;5069306;28;20407;-51
2022/04/20 04:16:43;;;;;;;11.23;6.75;;;5.60;1.00;;;;;;5069522;28;20392;-51
2022/04/20 04:19:09;;;;;;;11.70;6.20;;;5.60;1.00;;;;;;5069173;28;20875;-51
2022/04/20 04:21:37;;;;;;;9.43;6.00;;;5.50;92.90;;;;;;5076514;28;20402;-51
2022/04/20 04:24:04;;;;;;;13.07;6.30;;;5.60;18.00;;;;;;5084851;28;20401;-51
2022/04/20 04:26:30;;;;;;;11.43;6.50;;;5.70;1.00;;;;;;5078885;28;20502;-52
2022/04/20 04:28:57;;;;;;;13.05;6.30;;;5.80;1.00;;;;;;5070529;28;20474;-51
2022/04/20 04:31:23;;;;;;;9.70;5.80;;;5.90;1.00;;;;;;5056918;28;20406;-51
2022/04/20 04:33:49;;;;;;;10.50;6.20;;;6.00;1.00;;;;;;5086221;28;20418;-51
2022/04/20 04:36:14;;;;;;;13.20;6.40;;;6.10;1.00;;;;;;5083862;28;20404;-51
2022/04/20 04:38:40;;;;;;;13.35;6.80;;;6.10;1.00;;;;;;5078015;28;20379;-52
2022/04/20 04:41:06;;;;;;;13.73;6.40;;;6.10;1.00;;;;;;5079576;28;20410;-51
2022/04/20 04:43:31;;;;;;;17.23;6.78;;;6.10;1.00;;;;;;5084157;28;20477;-52
2022/04/20 04:48:42;;;;;;;11.13;6.22;;;6.20;1.00;;;;;;5069811;28;20730;-52
2022/04/20 04:51:10;;;;;;;12.60;6.30;;;6.20;1.00;;;;;;5069139;28;20391;-51
2022/04/20 04:53:37;;;;;;;11.32;6.10;;;6.20;1.00;;;;;;5083342;28;20421;-52
2022/04/20 04:56:02;;;;;;;9.80;5.68;;;6.30;1.00;;;;;;5080059;28;20891;-51
2022/04/20 04:58:28;;;;;;;10.73;6.00;;;6.40;1.00;;;;;;5060608;28;20383;-52
2022/04/20 05:00:54;;;;;;;11.10;5.50;;;6.60;1.00;;;;;;5085041;28;20428;-51
2022/04/20 05:03:20;;;;;;;11.23;5.72;;;6.80;1.00;;;;;;5088978;28;20928;-51
2022/04/20 05:05:48;;;;;;;10.75;6.10;;;6.80;1.00;;;;;;5089623;28;20390;-52
2022/04/20 05:08:15;;;;;;;9.70;6.00;;;6.90;1.00;;;;;;5088825;28;20460;-51
2022/04/20 05:10:41;;;;;;;10.38;6.10;;;6.90;1.00;;;;;;5089560;28;20713;-53
2022/04/20 05:13:07;;;;;;;10.77;6.10;;;6.80;1.00;;;;;;5089296;28;20408;-52
2022/04/20 05:15:33;;;;;;;10.73;6.40;;;6.80;1.00;;;;;;5089348;28;20367;-52
2022/04/20 05:17:59;;;;;;;12.00;6.30;;;6.90;1.00;;;;;;5089170;28;20379;-52
2022/04/20 05:20:25;;;;;;;12.07;6.38;;;7.00;1.00;;;;;;5088153;28;20818;-52
2022/04/20 05:22:51;;;;;;;12.02;6.32;;;7.10;99.90;;;;;;5071465;28;20486;-52
2022/04/20 05:25:17;;;;;;;10.00;5.70;;;7.10;99.90;;;;;;5068251;28;20368;-52
2022/04/20 05:27:44;;;;;;;11.23;6.20;;;7.40;99.90;;;;;;5069316;28;20383;-52
2022/04/20 05:30:13;;;;;;;9.68;5.82;;;7.80;99.90;;;;;;5063782;28;20400;-52
2022/04/20 05:32:39;;;;;;;11.15;5.70;;;7.90;99.90;;;;;;5056621;28;20388;-54
2022/04/20 05:35:05;;;;;;;11.70;6.43;;;8.50;99.90;;;;;;5070638;28;20387;-52
2022/04/20 05:42:59;;;;;;;10.20;6.32;;;9.90;99.90;;;;;;5069695;28;20462;-53
2022/04/20 05:45:25;;;;;;;11.40;6.20;;;10.10;99.90;;;;;;5071873;28;20780;-53
2022/04/20 05:47:52;;;;;;;11.73;6.00;;;10.20;99.90;;;;;;5072644;28;20383;-53
2022/04/20 05:50:18;;;;;;;11.15;6.20;;;10.80;99.90;;;;;;5071822;28;20391;-51
2022/04/20 05:52:44;;;;;;;11.30;7.38;;;12.00;99.90;;;;;;5072640;28;20869;-54
2022/04/20 05:55:10;;;;;;;11.38;7.00;;;13.50;99.90;;;;;;5054247;28;20383;-54
2022/04/20 05:57:36;;;;;;;11.10;7.20;;;14.20;73.10;;;;;;5072867;28;20853;-54
2022/04/20 06:00:04;;;;;;;10.43;7.13;;;14.20;68.60;;;;;;5072193;28;20387;-54
2022/04/20 06:02:33;;;;;;;10.67;7.30;;;14.20;99.90;;;;;;5054264;28;20391;-53
2022/04/20 06:05:01;;;;;;;10.07;7.80;;;14.10;99.90;;;;;;5063852;28;20407;-54
2022/04/20 06:07:27;;;;;;;9.43;7.28;;;13.90;99.90;;;;;;5061223;28;20392;-54
2022/04/20 06:09:52;;;;;;;11.15;7.60;;;14.00;99.90;;;;;;5046954;28;20897;-54
2022/04/20 06:12:22;;;;;;;10.60;7.10;;;14.20;99.90;;;;;;5051158;28;20466;-54
2022/04/20 06:14:47;;;;;;;9.90;7.30;;;14.40;99.90;;;;;;5064466;28;20892;-54
2022/04/20 06:17:13;;;;;;;10.03;7.20;;;14.40;99.90;;;;;;5070759;28;20479;-54
2022/04/20 06:19:39;;;;;;;11.00;6.80;;;15.00;99.90;;;;;;5070303;28;20461;-54
2022/04/20 06:22:05;;;;;;;9.90;7.25;;;15.70;99.90;;;;;;5082272;28;20455;-54
2022/04/20 06:24:30;;;;;;;10.80;7.50;;;16.20;99.90;;;;;;5090429;28;20443;-54
2022/04/20 06:26:56;;;;;;;11.05;7.38;;;15.90;99.90;;;;;;5091180;28;20386;-54
2022/04/20 06:29:22;;;;;;;12.07;7.65;;;16.00;99.90;;;;;;5091192;28;20379;-54
2022/04/20 06:31:47;;;;;;;9.87;7.63;;;16.10;99.90;;;;;;5092191;28;20366;-54
2022/04/20 06:34:13;;;;;;;9.70;7.10;;;16.10;99.90;;;;;;5090791;28;20937;-54
2022/04/20 06:36:39;;;;;;;9.85;7.50;;;16.20;99.90;;;;;;5091826;28;20382;-54
2022/04/20 06:39:06;;;;;;;9.70;7.20;;;16.30;99.90;;;;;;5090132;28;20378;-54
2022/04/20 06:41:31;;;;;;;10.50;7.10;;;16.50;99.90;;;;;;5070642;28;20893;-54
2022/04/20 06:43:57;;;;;;;10.33;7.03;;;16.80;99.90;;;;;;5071614;28;20391;-54
2022/04/20 06:46:23;;;;;;;8.90;5.40;;;16.40;99.90;;;;;;5069849;28;20387;-54
2022/04/20 06:48:49;;;;;;;9.25;5.78;;;16.20;99.90;;;;;;5071319;28;20897;-54
2022/04/20 06:51:15;;;;;;;9.75;5.75;;;15.90;99.90;;;;;;5070307;28;20419;-54
2022/04/20 06:59:13;;;;;;;9.77;5.43;;;15.70;99.90;;;;;;5061550;28;20374;-54
2022/04/20 07:01:39;;;;;;;8.70;5.10;;;15.70;99.90;;;;;;5091440;28;20375;-54
2022/04/20 07:04:08;;;;;;;9.50;5.00;;;16.40;99.90;;;;;;5091959;28;20855;-55
2022/04/20 07:06:33;;;;;;;9.43;5.45;;;16.50;99.90;;;;;;5090580;28;20431;-54
2022/04/20 07:08:59;;;;;;;8.83;5.60;;;16.30;99.90;;;;;;5091689;28;20378;-54
2022/04/20 07:11:28;;;;;;;8.50;5.60;;;16.40;99.90;;;;;;5090229;28;20404;-55
2022/04/20 07:13:54;;;;;;;9.18;5.47;;;16.80;99.90;;;;;;5058804;28;20412;-53
2022/04/20 07:16:20;;;;;;;10.50;5.80;;;17.10;99.90;;;;;;5070835;28;20407;-54
2022/04/20 07:18:46;;;;;;;9.80;5.40;;;17.10;99.90;;;;;;5071343;28;20729;-55
2022/04/20 07:21:11;;;;;;;8.90;5.30;;;17.60;99.90;;;;;;5052013;28;20776;-54
2022/04/20 07:23:38;;;;;;;10.70;5.50;;;16.90;99.90;;;;;;5053053;28;20407;-55
2022/04/20 07:26:03;;;;;;;9.10;5.60;;;16.80;99.90;;;;;;5071139;28;20374;-53
2022/04/20 07:28:30;;;;;;;7.72;4.20;;;17.50;99.90;;;;;;5069976;28;20401;-53
2022/04/20 07:30:56;;;;;;;8.38;4.82;;;18.00;99.90;;;;;;5070463;28;20375;-54
2022/04/20 07:33:22;;;;;;;9.00;4.70;;;18.50;99.90;;;;;;5070109;28;20407;-56
2022/04/20 07:35:47;;;;;;;9.40;5.00;;;18.90;99.90;;;;;;5052756;28;20877;-54
2022/04/20 07:38:13;;;;;;;8.65;4.75;;;18.70;99.90;;;;;;5085531;28;20413;-53
2022/04/20 07:40:39;;;;;;;9.07;4.60;;;17.60;99.90;;;;;;5083120;28;20724;-54
2022/04/20 07:43:05;;;;;;;8.33;4.50;;;17.10;99.90;;;;;;5063615;28;20401;-54
2022/04/20 07:45:31;;;;;;;10.48;4.78;;;16.80;99.90;;;;;;5084759;28;20729;-55
2022/04/20 07:47:57;;;;;;;7.75;4.40;;;17.00;99.90;;;;;;5088314;28;20452;-54
2022/04/20 07:50:24;;;;;;;8.18;4.30;;;17.60;99.90;;;;;;5087701;28;20477;-55
2022/04/20 07:52:53;;;;;;;8.32;4.85;;;18.00;99.90;;;;;;5086187;28;20416;-54
2022/04/20 07:55:27;;;;;;;8.20;5.25;;;17.60;99.90;;;;;;5059563;28;20390;-53
2022/04/20 07:57:58;;;;;;;10.00;6.00;;;17.20;99.90;;;;;;5076860;28;20381;-53
2022/04/20 08:00:24;;;;;;;8.18;4.80;;;17.00;99.90;;;;;;5078331;28;20475;-53
2022/04/20 08:02:51;;;;;;;7.97;4.97;;;17.50;99.90;;;;;;5079468;28;20861;-53
2022/04/20 08:05:19;;;;;;;9.30;5.43;;;17.10;99.90;;;;;;5083143;28;20395;-53
2022/04/20 08:07:45;;;;;;;8.30;4.80;;;17.80;99.90;;;;;;5083503;28;20394;-53
2022/04/20 08:10:12;;;;;;;8.60;5.25;;;18.70;99.90;;;;;;5089789;28;20378;-53
2022/04/20 08:12:44;;;;;;;10.40;5.60;;;18.40;99.90;;;;;;5089940;28;20370;-53
2022/04/20 08:15:11;;;;;;;7.93;4.40;;;18.60;99.90;;;;;;5060612;28;20401;-54
2022/04/20 08:17:37;;;;;;;10.80;5.00;;;19.20;99.90;;;;;;5088619;28;20736;-54
2022/04/20 08:20:07;;;;;;;9.38;4.85;;;18.70;99.90;;;;;;5067271;28;20406;-54
2022/04/20 08:22:41;;;;;;;8.50;4.70;;;18.80;99.90;;;;;;5064969;28;20430;-54
2022/04/20 08:25:09;;;;;;;8.40;4.60;;;18.70;99.90;;;;;;5061937;28;20778;-54
2022/04/20 08:27:34;;;;;;;8.10;5.05;;;18.70;99.90;;;;;;5057309;28;20405;-54
2022/04/20 08:30:00;;;;;;;9.90;4.80;;;19.60;99.90;;;;;;5059296;28;20372;-55
2022/04/20 08:32:26;;;;;;;7.90;4.65;;;20.90;99.90;;;;;;5058249;28;20389;-54
2022/04/20 08:34:52;;;;;;;8.80;5.22;;;21.90;99.90;;;;;;5060760;28;20781;-54
2022/04/20 08:37:18;;;;;;;9.30;7.32;;;22.60;99.90;;;;;;5062989;28;20733;-54
2022/04/20 08:39:43;;;;;;;8.50;6.23;;;21.30;99.90;;;;;;5065132;28;20376;-54
2022/04/20 08:42:12;;;;;;;8.50;6.88;;;21.20;99.90;;;;;;5051664;28;20471;-55
2022/04/20 08:44:44;;;;;;;9.10;6.50;;;22.10;99.90;;;;;;5055222;28;20409;-57
2022/04/20 08:47:15;;;;;;;8.02;6.43;;;22.70;99.90;;;;;;5062607;28;20493;-55
2022/04/20 08:49:44;;;;;;;9.57;6.47;;;22.80;99.90;;;;;;5063144;28;20383;-54
2022/04/20 08:54:56;;;;;;;7.87;4.53;;;21.10;99.90;;;;;;5048526;28;20482;-54
2022/04/20 08:57:26;;;;;;;8.57;4.63;;;20.50;99.90;;;;;;5062695;28;20393;-53
2022/04/20 08:59:52;;;;;;;8.18;6.05;;;20.60;99.90;;;;;;5067102;28;20448;-55
2022/04/20 09:02:19;;;;;;;8.70;6.05;;;21.30;99.90;;;;;;5068415;28;20379;-54
2022/04/20 09:04:46;;;;;;;8.90;6.10;;;21.40;99.90;;;;;;5051573;28;20395;-56
2022/04/20 09:07:15;;;;;;;8.18;6.20;;;21.20;99.90;;;;;;5068979;28;20376;-56
2022/04/20 09:09:41;;;;;;;9.73;6.00;;;21.60;99.90;;;;;;5051074;28;20421;-56
2022/04/20 09:12:18;;;;;;;8.90;5.90;;;22.60;99.90;;;;;;5050878;28;20395;-55
2022/04/20 09:14:48;;;;;;;8.98;5.80;;;22.90;99.90;;;;;;5071185;28;20915;-56
2022/04/20 09:17:18;;;;;;;8.35;6.15;;;22.90;99.90;;;;;;5067138;28;20391;-54
2022/04/20 09:19:51;;;;;;;8.65;6.50;;;23.70;99.90;;;;;;5067792;28;20872;-55
2022/04/20 09:22:26;;;;;;;8.20;6.10;;;23.30;99.90;;;;;;5083854;28;20410;-55
2022/04/20 09:25:11;;;;;;;7.60;6.00;;;23.30;99.90;;;;;;5086510;28;20903;-56
2022/04/20 09:27:42;;;;;;;9.30;5.97;;;23.10;99.90;;;;;;5088516;28;20886;-56
2022/04/20 09:30:14;;;;;;;8.18;5.90;;;21.30;99.90;;;;;;5089049;28;20389;-56
2022/04/20 09:32:41;;;;;;;9.45;6.47;;;21.20;99.90;;;;;;5092796;28;20732;-55
2022/04/20 09:35:14;;;;;;;8.30;6.00;;;22.00;99.90;;;;;;5093373;28;20381;-55
2022/04/20 09:37:42;;;;;;;7.97;5.90;;;21.90;99.90;;;;;;5092617;28;20386;-55
2022/04/20 09:40:13;;;;;;;9.13;5.63;;;23.00;99.90;;;;;;5092876;28;20378;-56
2022/04/20 09:43:02;;;;;;;8.38;5.25;;;22.80;99.90;;;;;;5075172;28;20385;-56
2022/04/20 09:45:28;;;;;;;8.10;6.07;;;22.60;99.90;;;;;;5092474;28;20454;-55
2022/04/20 09:50:39;;;;;;;8.00;5.70;;;22.40;99.90;;;;;;5087214;28;20439;-56
2022/04/20 09:53:10;;;;;;;7.13;5.95;;;22.40;99.90;;;;;;5089285;28;20442;-56
2022/04/20 09:55:37;;;;;;;8.20;5.95;;;22.50;99.90;;;;;;5084181;28;20689;-56
2022/04/20 09:58:19;;;;;;;7.93;5.70;;;21.90;99.90;;;;;;5085728;28;20481;-54
2022/04/20 10:00:52;;;;;;;8.82;7.97;;;20.90;99.90;;;;;;5087547;28;20459;-54
2022/04/20 10:03:28;;;;;;;9.18;5.60;;;20.00;99.90;;;;;;5086513;28;20794;-53
2022/04/20 10:05:55;;;;;;;9.00;6.60;;;20.90;99.90;;;;;;5081891;28;20765;-55
2022/04/20 10:08:22;;;;;;;8.25;6.20;;;20.90;99.90;;;;;;5085715;28;20398;-55
2022/04/20 10:10:49;;;;;;;10.65;5.15;;;21.60;99.90;;;;;;5083534;28;20402;-56
2022/04/20 10:13:15;;;;;;;8.95;5.65;;;21.70;99.90;;;;;;5088594;28;20414;-55
2022/04/20 10:18:29;;;;;;;8.60;5.82;;;21.30;99.90;;;;;;5089655;28;20369;-57
2022/04/20 10:20:57;;;;;;;7.80;5.60;;;22.00;99.90;;;;;;5085529;28;20433;-55
2022/04/20 10:23:24;;;;;;;7.80;5.55;;;21.80;99.90;;;;;;5088693;28;20389;-55
2022/04/20 10:25:52;;;;;;;8.02;5.32;;;21.30;99.90;;;;;;5089399;28;20405;-55
2022/04/20 10:28:33;;;;;;;9.27;5.25;;;21.20;99.90;;;;;;5088356;28;21012;-55
2022/04/20 10:31:23;;;;;;;7.45;5.20;;;21.20;99.90;;;;;;5091881;28;20851;-56
2022/04/20 10:33:49;;;;;;;8.32;5.70;;;20.40;99.90;;;;;;5088601;28;20493;-55
2022/04/20 10:36:17;;;;;;;7.83;5.77;;;20.00;99.90;;;;;;5088506;28;20381;-54
2022/04/20 10:38:46;;;;;;;11.15;5.50;;;20.10;99.90;;;;;;5086300;28;20899;-55
2022/04/20 10:41:12;;;;;;;8.07;5.30;;;20.20;99.90;;;;;;5083340;28;20740;-54
2022/04/20 10:43:42;;;;;;;7.88;5.90;;;19.70;99.90;;;;;;5067578;28;20940;-54
2022/04/20 10:46:16;;;;;;;8.00;5.40;;;19.60;99.90;;;;;;5087722;28;20424;-54
2022/04/20 10:48:49;;;;;;;7.97;5.70;;;18.70;99.90;;;;;;5085974;28;20388;-54
2022/04/20 10:51:22;;;;;;;8.25;5.35;;;18.00;99.90;;;;;;5084554;28;20978;-53
2022/04/20 10:53:49;;;;;;;7.87;5.40;;;17.60;99.90;;;;;;5071483;28;20421;-54
2022/04/20 10:56:20;;;;;;;8.80;5.95;;;17.80;99.90;;;;;;5089774;28;20382;-54
2022/04/20 10:59:05;;;;;;;7.80;5.50;;;18.10;99.90;;;;;;5086952;28;20400;-54
2022/04/20 11:01:31;;;;;;;10.95;6.13;;;17.80;99.90;;;;;;5073397;28;20816;-54
2022/04/20 11:04:05;;;;;;;8.73;4.90;;;17.70;99.90;;;;;;5086425;28;20461;-54
2022/04/20 11:06:58;;;;;;;8.20;5.40;;;17.30;99.90;;;;;;5086690;28;20452;-54
2022/04/20 11:09:43;;;;;;;8.60;5.38;;;17.60;99.90;;;;;;5085552;28;20948;-53
2022/04/20 11:21:11;;;;;;;7.00;5.30;;;17.00;99.90;;;;;;5081940;28;20891;-56
2022/04/20 11:23:51;;;;;;;7.63;5.45;;;17.20;99.90;;;;;;5084089;28;21038;-56
2022/04/20 11:26:25;;;;;;;8.18;4.80;;;17.30;99.90;;;;;;5083361;28;20390;-55
2022/04/20 11:28:52;;;;;;;7.23;5.20;;;17.30;99.90;;;;;;5086818;28;20473;-55
2022/04/20 11:31:18;;;;;;;8.23;5.25;;;17.60;99.90;;;;;;5082744;28;20952;-53
2022/04/20 11:33:44;;;;;;;7.32;5.20;;;17.50;99.90;;;;;;5083398;28;20414;-54
2022/04/20 11:36:12;;;;;;;7.60;5.70;;;17.20;99.90;;;;;;5087778;28;20723;-56
2022/04/20 11:38:43;;;;;;;7.97;5.32;;;17.20;99.90;;;;;;5084288;28;20400;-55
2022/04/20 11:41:13;;;;;;;8.00;5.60;;;17.30;99.90;;;;;;5088286;28;20526;-56
2022/04/20 11:43:40;;;;;;;10.85;5.60;;;17.20;99.90;;;;;;5086074;28;20557;-56
2022/04/20 11:46:07;;;;;;;7.90;5.40;;;17.20;99.90;;;;;;5083419;28;20385;-55
2022/04/20 11:48:35;;;;;;;10.13;5.40;;;16.90;99.90;;;;;;5088287;28;20378;-55
2022/04/20 11:51:03;;;;;;;8.73;5.22;;;16.80;99.90;;;;;;5084887;28;20394;-56
2022/04/20 11:53:38;;;;;;;8.70;4.93;;;16.90;99.90;;;;;;5084614;28;20418;-54
2022/04/20 11:56:07;;;;;;;7.70;5.72;;;17.20;99.90;;;;;;5084532;28;20380;-54
2022/04/20 11:58:34;;;;;;;8.70;6.18;;;17.40;99.90;;;;;;5085899;28;20385;-54
2022/04/20 12:01:07;;;;;;;8.82;5.95;;;17.00;99.90;;;;;;5066873;28;20449;-54
2022/04/20 12:03:37;;;;;;;7.88;5.80;;;17.00;99.90;;;;;;5086517;28;20387;-54
2022/04/20 12:06:05;;;;;;;8.88;6.25;;;17.10;99.90;;;;;;5084076;28;20403;-54
2022/04/20 12:08:33;;;;;;;8.00;6.07;;;17.10;99.90;;;;;;5065295;28;20386;-56
2022/04/20 12:11:04;;;;;;;9.68;6.30;;;16.80;99.90;;;;;;5086661;28;20488;-54
2022/04/20 12:13:31;;;;;;;9.30;6.20;;;17.20;99.90;;;;;;5087512;28;20438;-54
2022/04/20 12:16:15;;;;;;;10.15;6.32;;;17.40;99.90;;;;;;5082708;28;20934;-55
2022/04/20 12:18:46;;;;;;;8.70;5.72;;;17.30;99.90;;;;;;5085562;28;20392;-54
2022/04/20 12:21:44;;;;;;;9.50;6.80;;;17.60;99.90;;;;;;5084652;28;20413;-54
2022/04/20 12:24:19;;;;;;;9.40;6.53;;;17.40;99.90;;;;;;5088587;28;20394;-54
2022/04/20 12:26:47;;;;;;;9.75;6.60;;;17.20;99.90;;;;;;5086281;28;20383;-54
2022/04/20 12:29:14;;;;;;;8.63;6.13;;;17.20;99.90;;;;;;5085458;28;20374;-55
2022/04/20 12:31:43;;;;;;;8.90;6.80;;;17.10;99.90;;;;;;5081940;28;20406;-54
2022/04/20 12:34:10;;;;;;;9.70;6.00;;;16.70;99.90;;;;;;5082466;28;20416;-55
2022/04/20 12:37:08;;;;;;;8.47;6.17;;;16.90;99.90;;;;;;5066466;28;20778;-54
2022/04/20 12:39:39;;;;;;;8.77;6.25;;;17.10;99.90;;;;;;5044665;28;20772;-54
2022/04/20 12:42:17;;;;;;;8.73;5.90;;;17.10;99.90;;;;;;5087677;28;20392;-55
2022/04/20 12:44:57;;;;;;;7.95;6.00;;;17.10;99.90;;;;;;5080618;28;20390;-54
2022/04/20 12:47:26;;;;;;;9.65;6.05;;;17.30;99.90;;;;;;5082728;28;20393;-54
2022/04/20 12:50:00;;;;;;;8.40;5.83;;;17.20;99.90;;;;;;5087203;28;20394;-54
2022/04/20 12:52:29;;;;;;;8.57;6.28;;;17.30;99.90;;;;;;5079500;28;20423;-54
2022/04/20 12:55:10;;;;;;;9.15;6.18;;;17.60;99.90;;;;;;5083894;28;20775;-54
2022/04/20 13:03:20;;;;;;;8.73;5.80;;;17.30;99.90;;;;;;5082559;28;20402;-54
2022/04/20 13:05:46;;;;;;;7.63;5.32;;;17.40;99.90;;;;;;5081559;28;20391;-54
2022/04/20 13:08:13;;;;;;;7.72;5.30;;;17.00;99.90;;;;;;5086333;28;20731;-54
2022/04/20 13:10:41;;;;;;;9.10;5.05;;;16.70;99.90;;;;;;5079454;28;21024;-54
2022/04/20 13:13:08;;;;;;;9.05;5.05;;;16.70;99.90;;;;;;5085185;28;20415;-54
2022/04/20 13:15:34;;;;;;;8.30;5.60;;;16.40;99.90;;;;;;5083806;28;20378;-54
2022/04/20 13:18:01;;;;;;;8.40;5.30;;;16.60;99.90;;;;;;5065909;28;20414;-54
2022/04/20 13:20:28;;;;;;;8.82;5.05;;;17.20;99.90;;;;;;5066605;28;20852;-54
2022/04/20 13:22:55;;;;;;;8.40;4.97;;;17.40;99.90;;;;;;5084287;28;20871;-54
2022/04/20 13:28:06;;;;;;;8.02;4.93;;;17.80;99.90;;;;;;5086352;28;20372;-54
2022/04/20 13:30:37;;;;;;;8.13;5.50;;;17.80;99.90;;;;;;5081788;28;20387;-54